createdAt,value
2019-05-06T00:01:53.962Z,65.37
2019-05-06T00:04:24.772Z,66.86
2019-05-06T00:06:54.792Z,69.10
2019-05-06T00:09:24.153Z,67.58
2019-05-06T00:11:54.331Z,65.15
2019-05-06T00:14:23.708Z,63.92
2019-05-06T00:16:54.529Z,66.39
2019-05-06T00:19:24.611Z,66.71
2019-05-06T00:21:54.055Z,66.89
2019-05-06T00:24:25.017Z,66.21
2019-05-06T00:27:00.979Z,65.60
2019-05-06T00:29:30.321Z,66.94
2019-05-06T00:31:58.885Z,67.40
2019-05-06T00:34:27.429Z,66.56
2019-05-06T00:36:55.977Z,66.00
2019-05-06T00:39:26.240Z,66.78
2019-05-06T00:42:05.456Z,72.24
2019-05-06T00:44:34.630Z,70.28
2019-05-06T00:47:04.312Z,68.09
2019-05-06T00:49:34.430Z,66.65
2019-05-06T00:52:04.254Z,67.01
2019-05-06T00:54:34.034Z,67.04
2019-05-06T00:57:03.655Z,66.10
2019-05-06T00:59:34.426Z,66.10
2019-05-06T01:02:04.557Z,66.62
2019-05-06T01:04:33.876Z,66.51
2019-05-06T01:07:03.919Z,66.59
2019-05-06T01:09:34.871Z,66.17
2019-05-06T01:12:04.939Z,66.81
2019-05-06T01:14:50.376Z,67.31
2019-05-06T01:17:18.916Z,69.04
2019-05-06T01:19:47.493Z,69.89
2019-05-06T01:22:16.111Z,67.82
2019-05-06T01:24:44.766Z,66.93
2019-05-06T01:27:14.541Z,67.67
2019-05-06T01:29:44.154Z,68.73
2019-05-06T01:32:13.970Z,69.02
2019-05-06T01:34:44.541Z,67.67
2019-05-06T01:37:14.241Z,66.74
2019-05-06T01:39:47.606Z,67.30
2019-05-06T01:42:26.698Z,67.70
2019-05-06T01:44:55.318Z,67.76
2019-05-06T01:47:23.922Z,66.98
2019-05-06T01:49:53.759Z,67.37
2019-05-06T01:52:24.049Z,68.25
2019-05-06T01:54:54.275Z,72.68
2019-05-06T01:57:24.461Z,68.47
2019-05-06T01:59:53.909Z,67.41
2019-05-06T02:02:23.891Z,66.84
2019-05-06T02:04:54.006Z,68.18
2019-05-06T02:07:24.135Z,69.20
2019-05-06T02:09:54.221Z,68.71
2019-05-06T02:12:24.618Z,68.26
2019-05-06T02:14:54.303Z,67.75
2019-05-06T02:17:23.932Z,67.58
2019-05-06T02:19:54.689Z,67.45
2019-05-06T02:22:30.660Z,67.66
2019-05-06T02:25:00.848Z,66.94
2019-05-06T02:27:29.486Z,67.49
2019-05-06T02:30:08.667Z,69.74
2019-05-06T02:32:41.632Z,69.01
2019-05-06T02:35:14.326Z,68.66
2019-05-06T02:37:46.481Z,68.12
2019-05-06T02:40:24.713Z,67.49
2019-05-06T02:42:54.801Z,67.89
2019-05-06T02:45:24.414Z,67.61
2019-05-06T02:47:57.566Z,67.65
2019-05-06T02:50:46.218Z,67.83
2019-05-06T02:53:16.542Z,67.24
2019-05-06T02:55:45.138Z,67.42
2019-05-06T02:58:14.797Z,66.96
2019-05-06T03:00:43.687Z,67.90
2019-05-06T03:03:13.981Z,67.98
2019-05-06T03:05:43.984Z,70.57
2019-05-06T03:08:13.634Z,70.67
2019-05-06T03:10:44.120Z,68.90
2019-05-06T03:13:14.210Z,66.92
2019-05-06T03:15:43.669Z,69.29
2019-05-06T03:18:14.767Z,69.21
2019-05-06T03:20:59.437Z,68.91
2019-05-06T03:23:45.007Z,68.55
2019-05-06T03:26:13.886Z,69.03
2019-05-06T03:28:44.118Z,68.59
2019-05-06T03:31:16.591Z,68.36
2019-05-06T03:34:03.494Z,68.38
2019-05-06T03:36:23.865Z,68.06
2019-05-06T03:38:43.855Z,68.64
2019-05-06T03:41:13.863Z,69.99
2019-05-06T03:43:43.638Z,71.92
2019-05-06T03:46:14.425Z,70.50
2019-05-06T03:48:44.686Z,68.33
2019-05-06T03:51:13.687Z,68.20
2019-05-06T03:53:43.532Z,68.22
2019-05-06T03:56:15.474Z,68.25
2019-05-06T03:58:44.023Z,68.35
2019-05-06T04:01:13.439Z,68.35
2019-05-06T04:03:47.811Z,67.82
2019-05-06T04:06:13.850Z,67.62
2019-05-06T04:08:43.854Z,67.29
2019-05-06T04:11:15.629Z,67.07
2019-05-06T04:13:45.439Z,67.92
2019-05-06T04:16:23.092Z,69.64
2019-05-06T04:18:54.186Z,72.23
2019-05-06T04:21:34.006Z,69.81
2019-05-06T04:24:15.887Z,69.00
2019-05-06T04:26:55.897Z,68.60
2019-05-06T04:29:26.167Z,68.22
2019-05-06T04:31:55.242Z,68.80
2019-05-06T04:34:23.885Z,69.11
2019-05-06T04:36:53.388Z,68.92
2019-05-06T04:39:23.319Z,69.63
2019-05-06T04:41:53.850Z,69.62
2019-05-06T04:44:23.899Z,70.12
2019-05-06T04:46:54.424Z,69.94
2019-05-06T04:49:23.799Z,68.92
2019-05-06T04:51:54.080Z,68.29
2019-05-06T04:54:26.485Z,71.12
2019-05-06T04:56:54.030Z,70.23
2019-05-06T04:59:23.301Z,69.32
2019-05-06T05:01:53.497Z,67.77
2019-05-06T05:04:31.117Z,68.01
2019-05-06T05:06:52.829Z,67.96
2019-05-06T05:09:23.039Z,68.38
2019-05-06T05:12:02.846Z,68.51
2019-05-06T05:14:38.990Z,68.67
2019-05-06T05:17:25.827Z,67.37
2019-05-06T05:19:54.553Z,67.71
2019-05-06T05:22:23.183Z,67.27
2019-05-06T05:24:52.311Z,67.21
2019-05-06T05:27:21.956Z,67.27
2019-05-06T05:29:52.243Z,67.61
2019-05-06T05:32:22.495Z,66.77
2019-05-06T05:34:52.286Z,66.31
2019-05-06T05:37:22.832Z,66.05
2019-05-06T05:39:51.991Z,66.12
2019-05-06T05:42:22.562Z,66.22
2019-05-06T05:44:52.893Z,66.15
2019-05-06T05:47:22.080Z,65.55
2019-05-06T05:50:08.310Z,66.38
2019-05-06T05:52:36.887Z,66.07
2019-05-06T05:55:06.162Z,65.54
2019-05-06T05:57:34.884Z,65.10
2019-05-06T06:00:04.228Z,65.36
2019-05-06T06:02:33.383Z,66.29
2019-05-06T06:05:02.641Z,67.52
2019-05-06T06:07:32.746Z,67.64
2019-05-06T06:10:04.346Z,64.57
2019-05-06T06:12:32.960Z,65.35
2019-05-06T06:15:03.189Z,65.14
2019-05-06T06:17:39.422Z,64.91
2019-05-06T06:20:26.326Z,65.09
2019-05-06T06:22:56.853Z,65.47
2019-05-06T06:25:25.746Z,66.99
2019-05-06T06:27:54.351Z,66.22
2019-05-06T06:30:42.403Z,66.00
2019-05-06T06:33:12.834Z,65.03
2019-05-06T06:35:54.883Z,64.30
2019-05-06T06:38:28.057Z,64.67
2019-05-06T06:40:56.759Z,64.98
2019-05-06T06:43:27.013Z,64.86
2019-05-06T06:45:55.614Z,63.18
2019-05-06T06:48:24.239Z,61.87
2019-05-06T06:50:54.016Z,62.82
2019-05-06T06:53:22.618Z,62.81
2019-05-06T06:55:52.849Z,62.16
2019-05-06T06:58:32.598Z,61.93
2019-05-06T07:01:03.306Z,62.32
2019-05-06T07:03:33.761Z,61.46
2019-05-06T07:06:03.983Z,62.47
2019-05-06T07:08:37.401Z,62.52
2019-05-06T07:11:02.889Z,62.16
2019-05-06T07:13:32.721Z,62.29
2019-05-06T07:16:02.928Z,62.58
2019-05-06T07:18:33.184Z,61.97
2019-05-06T07:21:05.393Z,61.52
2019-05-06T07:23:35.404Z,60.70
2019-05-06T07:26:04.144Z,61.21
2019-05-06T07:28:32.901Z,60.27
2019-05-06T07:31:17.872Z,60.19
2019-05-06T07:33:33.540Z,60.01
2019-05-06T07:36:02.365Z,61.00
2019-05-06T07:38:32.560Z,60.90
2019-05-06T07:41:04.498Z,59.60
2019-05-06T07:43:53.474Z,58.10
2019-05-06T07:46:26.437Z,57.36
2019-05-06T07:48:55.058Z,56.94
2019-05-06T07:51:23.981Z,56.94
2019-05-06T07:53:52.614Z,54.91
2019-05-06T07:56:22.447Z,55.53
2019-05-06T07:58:53.037Z,52.05
2019-05-06T08:01:25.859Z,52.64
2019-05-06T08:03:53.311Z,52.31
2019-05-06T08:06:22.680Z,51.39
2019-05-06T08:08:53.650Z,52.18
2019-05-06T08:11:22.315Z,52.06
2019-05-06T08:13:52.776Z,51.70
2019-05-06T08:16:22.598Z,50.63
2019-05-06T08:18:52.399Z,51.34
2019-05-06T08:21:23.361Z,49.77
2019-05-06T08:23:53.818Z,49.99
2019-05-06T08:26:22.682Z,50.78
2019-05-06T08:28:52.674Z,48.65
2019-05-06T08:31:22.731Z,48.75
2019-05-06T08:33:52.343Z,46.66
2019-05-06T08:36:23.258Z,48.13
2019-05-06T08:39:05.927Z,48.06
2019-05-06T08:41:34.448Z,46.14
2019-05-06T08:44:03.148Z,45.61
2019-05-06T08:46:32.752Z,44.59
2019-05-06T08:49:03.008Z,44.92
2019-05-06T08:51:49.986Z,45.62
2019-05-06T08:54:22.564Z,45.54
2019-05-06T08:56:52.358Z,45.46
2019-05-06T08:59:20.928Z,46.62
2019-05-06T09:01:53.365Z,47.39
2019-05-06T09:04:22.912Z,46.66
2019-05-06T09:06:53.477Z,45.46
2019-05-06T09:09:22.600Z,44.76
2019-05-06T09:11:53.545Z,45.22
2019-05-06T09:14:23.221Z,45.56
2019-05-06T09:16:53.929Z,46.42
2019-05-06T09:19:23.309Z,44.85
2019-05-06T09:21:53.382Z,45.57
2019-05-06T09:24:23.100Z,46.00
2019-05-06T09:26:53.685Z,46.29
2019-05-06T09:29:26.566Z,46.80
2019-05-06T09:32:05.527Z,47.00
2019-05-06T09:34:35.678Z,48.51
2019-05-06T09:37:17.822Z,48.90
2019-05-06T09:39:46.573Z,48.70
2019-05-06T09:42:16.109Z,47.62
2019-05-06T09:44:45.825Z,48.13
2019-05-06T09:47:19.283Z,47.58
2019-05-06T09:49:48.984Z,48.74
2019-05-06T09:52:17.565Z,48.10
2019-05-06T09:54:59.583Z,49.30
2019-05-06T09:57:32.904Z,49.51
2019-05-06T10:00:04.604Z,51.30
2019-05-06T10:02:32.627Z,51.89
2019-05-06T10:05:03.602Z,52.06
2019-05-06T10:07:33.767Z,53.51
2019-05-06T10:10:02.112Z,53.76
2019-05-06T10:12:32.736Z,55.74
2019-05-06T10:15:03.162Z,54.79
2019-05-06T10:17:31.242Z,53.94
2019-05-06T10:20:02.591Z,52.96
2019-05-06T10:22:32.294Z,52.78
2019-05-06T10:25:03.379Z,52.96
2019-05-06T10:27:31.030Z,53.02
2019-05-06T10:30:04.020Z,53.85
2019-05-06T10:32:43.354Z,53.87
2019-05-06T10:35:13.111Z,53.07
2019-05-06T10:37:47.590Z,53.86
2019-05-06T10:40:32.869Z,53.99
2019-05-06T10:43:06.959Z,53.92
2019-05-06T10:45:35.651Z,54.08
2019-05-06T10:48:04.302Z,54.42
2019-05-06T10:50:34.552Z,54.70
2019-05-06T10:53:08.321Z,53.68
2019-05-06T10:55:38.550Z,55.05
2019-05-06T10:58:07.182Z,56.17
2019-05-06T11:00:36.336Z,57.14
2019-05-06T11:03:09.307Z,58.28
2019-05-06T11:05:38.021Z,58.99
2019-05-06T11:08:06.648Z,58.39
2019-05-06T11:10:40.972Z,58.27
2019-05-06T11:13:06.441Z,57.23
2019-05-06T11:15:35.126Z,57.15
2019-05-06T11:18:04.826Z,56.72
2019-05-06T11:20:33.711Z,56.77
2019-05-06T11:23:02.391Z,57.83
2019-05-06T11:25:32.296Z,55.87
2019-05-06T11:28:02.943Z,53.96
2019-05-06T11:30:39.296Z,53.74
2019-05-06T11:33:09.982Z,53.80
2019-05-06T11:35:56.443Z,53.10
2019-05-06T11:38:25.611Z,51.68
2019-05-06T11:40:54.241Z,51.48
2019-05-06T11:43:22.955Z,52.70
2019-05-06T11:45:52.175Z,53.09
2019-05-06T11:48:22.219Z,51.60
2019-05-06T11:50:52.704Z,52.89
2019-05-06T11:53:23.102Z,52.93
2019-05-06T11:55:54.439Z,52.59
2019-05-06T11:58:39.386Z,55.59
2019-05-06T12:01:09.657Z,50.44
2019-05-06T12:03:38.199Z,48.95
2019-05-06T12:06:06.823Z,48.92
2019-05-06T12:08:35.304Z,48.41
2019-05-06T12:11:03.887Z,48.48
2019-05-06T12:13:33.730Z,49.30
2019-05-06T12:16:02.603Z,48.49
2019-05-06T12:18:31.463Z,47.82
2019-05-06T12:21:11.025Z,48.04
2019-05-06T12:23:34.907Z,48.74
2019-05-06T12:26:02.417Z,46.86
2019-05-06T12:28:32.691Z,47.35
2019-05-06T12:31:01.508Z,48.07
2019-05-06T12:33:33.002Z,49.15
2019-05-06T12:36:03.299Z,47.88
2019-05-06T12:38:33.559Z,46.59
2019-05-06T12:41:03.300Z,46.70
2019-05-06T12:43:33.805Z,47.08
2019-05-06T12:46:04.030Z,47.08
2019-05-06T12:48:44.037Z,47.29
2019-05-06T12:51:12.822Z,47.47
2019-05-06T12:53:42.811Z,48.32
2019-05-06T12:56:12.403Z,48.13
2019-05-06T12:58:44.003Z,47.81
2019-05-06T13:01:13.719Z,47.68
2019-05-06T13:03:43.247Z,47.88
2019-05-06T13:06:12.963Z,48.08
2019-05-06T13:08:56.689Z,47.52
2019-05-06T13:11:13.198Z,48.45
2019-05-06T13:13:53.970Z,47.22
2019-05-06T13:16:12.690Z,47.19
2019-05-06T13:18:47.023Z,47.88
2019-05-06T13:21:12.700Z,47.94
2019-05-06T13:23:43.155Z,47.74
2019-05-06T13:26:12.833Z,48.66
2019-05-06T13:28:43.345Z,47.62
2019-05-06T13:31:19.905Z,47.44
2019-05-06T13:33:50.450Z,47.83
2019-05-06T13:36:19.224Z,48.93
2019-05-06T13:38:47.790Z,49.02
2019-05-06T13:41:16.412Z,50.36
2019-05-06T13:43:49.281Z,49.49
2019-05-06T13:46:19.455Z,49.95
2019-05-06T13:48:57.514Z,48.28
2019-05-06T13:51:34.024Z,48.32
2019-05-06T13:54:02.766Z,48.66
2019-05-06T13:56:33.118Z,48.97
2019-05-06T13:59:04.208Z,50.43
2019-05-06T14:01:36.573Z,50.48
2019-05-06T14:04:05.252Z,51.10
2019-05-06T14:06:33.881Z,50.91
2019-05-06T14:09:02.646Z,51.26
2019-05-06T14:11:32.440Z,52.12
2019-05-06T14:14:02.898Z,52.31
2019-05-06T14:16:33.390Z,52.89
2019-05-06T14:19:03.975Z,55.99
2019-05-06T14:21:32.498Z,53.97
2019-05-06T14:24:02.535Z,52.09
2019-05-06T14:26:58.106Z,51.47
2019-05-06T14:29:23.463Z,50.89
2019-05-06T14:31:53.728Z,51.51
2019-05-06T14:34:22.986Z,51.96
2019-05-06T14:36:53.343Z,51.97
2019-05-06T14:39:24.044Z,51.34
2019-05-06T14:41:54.315Z,50.52
2019-05-06T14:44:23.431Z,51.56
2019-05-06T14:46:59.487Z,50.21
2019-05-06T14:49:28.098Z,51.49
2019-05-06T14:51:56.657Z,52.01
2019-05-06T14:54:25.245Z,52.43
2019-05-06T14:57:04.562Z,51.66
2019-05-06T14:59:33.203Z,52.01
2019-05-06T15:02:02.596Z,51.62
2019-05-06T15:04:32.525Z,51.34
2019-05-06T15:07:02.184Z,52.67
2019-05-06T15:09:32.926Z,54.18
2019-05-06T15:12:02.326Z,56.25
2019-05-06T15:14:33.161Z,55.16
2019-05-06T15:17:02.334Z,55.75
2019-05-06T15:19:31.006Z,56.49
2019-05-06T15:22:02.242Z,56.30
2019-05-06T15:24:31.137Z,56.17
2019-05-06T15:26:59.784Z,57.17
2019-05-06T15:29:28.424Z,58.81
2019-05-06T15:32:12.994Z,56.62
2019-05-06T15:34:55.590Z,56.80
2019-05-06T15:37:27.213Z,56.15
2019-05-06T15:39:55.801Z,56.99
2019-05-06T15:42:24.454Z,57.73
2019-05-06T15:44:53.044Z,58.24
2019-05-06T15:47:22.673Z,58.63
2019-05-06T15:49:52.640Z,59.46
2019-05-06T15:52:23.433Z,59.08
2019-05-06T15:54:52.578Z,59.05
2019-05-06T15:57:22.911Z,58.63
2019-05-06T15:59:52.993Z,60.11
2019-05-06T16:02:23.328Z,59.97
2019-05-06T16:04:52.178Z,61.79
2019-05-06T16:07:25.241Z,59.93
2019-05-06T16:09:55.052Z,59.93
2019-05-06T16:12:22.656Z,58.54
2019-05-06T16:14:53.063Z,59.08
2019-05-06T16:17:23.773Z,59.64
2019-05-06T16:19:52.084Z,60.87
2019-05-06T16:22:22.586Z,60.41
2019-05-06T16:24:53.455Z,60.25
2019-05-06T16:27:22.953Z,60.92
2019-05-06T16:29:52.957Z,61.01
2019-05-06T16:32:22.048Z,60.24
2019-05-06T16:34:52.456Z,60.29
2019-05-06T16:37:22.349Z,59.92
2019-05-06T16:39:54.166Z,64.07
2019-05-06T16:42:22.549Z,60.66
2019-05-06T16:44:52.635Z,59.44
2019-05-06T16:47:37.114Z,59.07
2019-05-06T16:50:13.013Z,59.51
2019-05-06T16:52:44.803Z,60.38
2019-05-06T16:55:14.311Z,58.87
2019-05-06T16:57:44.477Z,59.72
2019-05-06T17:00:16.176Z,60.36
2019-05-06T17:02:57.048Z,60.41
2019-05-06T17:05:22.424Z,59.88
2019-05-06T17:07:53.222Z,59.82
2019-05-06T17:10:22.765Z,59.53
2019-05-06T17:12:53.678Z,60.30
2019-05-06T17:15:23.013Z,61.24
2019-05-06T17:17:53.173Z,60.66
2019-05-06T17:20:22.803Z,60.05
2019-05-06T17:22:53.186Z,59.93
2019-05-06T17:25:22.470Z,59.48
2019-05-06T17:27:52.652Z,59.83
2019-05-06T17:30:33.266Z,60.51
2019-05-06T17:33:19.908Z,59.60
2019-05-06T17:35:48.499Z,60.18
2019-05-06T17:38:18.783Z,60.53
2019-05-06T17:40:47.288Z,61.33
2019-05-06T17:43:15.928Z,61.63
2019-05-06T17:45:58.485Z,61.19
2019-05-06T17:48:27.914Z,61.21
2019-05-06T17:51:14.037Z,64.43
2019-05-06T17:53:44.463Z,63.63
2019-05-06T17:56:13.053Z,61.54
2019-05-06T17:58:42.320Z,61.63
2019-05-06T18:01:12.638Z,60.87
2019-05-06T18:03:41.351Z,61.83
2019-05-06T18:06:13.844Z,61.60
2019-05-06T18:08:43.029Z,61.07
2019-05-06T18:11:12.769Z,61.73
2019-05-06T18:13:41.182Z,62.12
2019-05-06T18:16:09.855Z,61.58
2019-05-06T18:18:38.474Z,61.48
2019-05-06T18:21:07.110Z,62.31
2019-05-06T18:23:35.834Z,63.03
2019-05-06T18:26:04.441Z,64.53
2019-05-06T18:28:33.052Z,62.76
2019-05-06T18:31:03.055Z,61.54
2019-05-06T18:33:32.706Z,62.44
2019-05-06T18:36:02.550Z,61.98
2019-05-06T18:38:33.478Z,62.82
2019-05-06T18:41:02.140Z,62.86
2019-05-06T18:43:33.216Z,62.88
2019-05-06T18:46:02.834Z,63.27
2019-05-06T18:48:35.108Z,63.26
2019-05-06T18:51:03.034Z,63.21
2019-05-06T18:53:33.096Z,62.92
2019-05-06T18:56:03.156Z,63.56
2019-05-06T18:58:32.442Z,64.34
2019-05-06T19:01:00.930Z,64.52
2019-05-06T19:03:32.044Z,64.07
2019-05-06T19:06:02.331Z,63.03
2019-05-06T19:08:38.649Z,63.01
2019-05-06T19:11:08.903Z,62.62
2019-05-06T19:13:37.487Z,63.08
2019-05-06T19:16:06.305Z,63.62
2019-05-06T19:18:34.709Z,63.55
2019-05-06T19:21:03.308Z,64.17
2019-05-06T19:23:32.545Z,65.00
2019-05-06T19:26:02.944Z,64.61
2019-05-06T19:28:32.813Z,64.09
2019-05-06T19:31:03.080Z,64.29
2019-05-06T19:33:34.722Z,64.80
2019-05-06T19:36:03.164Z,66.32
2019-05-06T19:38:32.982Z,65.61
2019-05-06T19:41:05.634Z,64.31
2019-05-06T19:43:32.919Z,64.99
2019-05-06T19:46:02.603Z,64.68
2019-05-06T19:48:32.797Z,65.67
2019-05-06T19:51:03.062Z,65.04
2019-05-06T19:53:32.274Z,63.93
2019-05-06T19:56:02.802Z,64.37
2019-05-06T19:58:31.693Z,64.46
2019-05-06T20:01:02.343Z,63.91
2019-05-06T20:03:32.695Z,65.16
2019-05-06T20:06:19.193Z,64.76
2019-05-06T20:08:52.907Z,65.84
2019-05-06T20:11:24.051Z,65.99
2019-05-06T20:13:52.715Z,66.42
2019-05-06T20:16:23.001Z,64.08
2019-05-06T20:18:52.670Z,62.99
2019-05-06T20:21:23.044Z,64.34
2019-05-06T20:23:52.720Z,63.10
2019-05-06T20:26:21.957Z,64.16
2019-05-06T20:28:52.606Z,64.27
2019-05-06T20:31:22.613Z,65.37
2019-05-06T20:33:52.810Z,64.34
2019-05-06T20:36:22.728Z,63.52
2019-05-06T20:38:51.351Z,62.31
2019-05-06T20:41:22.025Z,63.09
2019-05-06T20:43:50.322Z,62.69
2019-05-06T20:46:18.859Z,63.60
2019-05-06T20:48:47.559Z,67.76
2019-05-06T20:51:16.236Z,62.18
2019-05-06T20:53:44.837Z,62.46
2019-05-06T20:56:13.394Z,61.57
2019-05-06T20:58:42.169Z,62.15
2019-05-06T21:01:10.701Z,61.27
2019-05-06T21:03:39.236Z,61.05
2019-05-06T21:06:07.831Z,62.32
2019-05-06T21:08:36.529Z,61.87
2019-05-06T21:11:05.187Z,61.83
2019-05-06T21:13:35.608Z,61.62
2019-05-06T21:16:04.043Z,61.16
2019-05-06T21:18:32.650Z,60.83
2019-05-06T21:21:02.063Z,61.72
2019-05-06T21:23:32.147Z,63.18
2019-05-06T21:26:03.133Z,60.85
2019-05-06T21:28:31.177Z,58.95
2019-05-06T21:30:59.793Z,59.44
2019-05-06T21:33:28.360Z,59.89
2019-05-06T21:35:56.971Z,59.69
2019-05-06T21:38:25.517Z,58.69
2019-05-06T21:40:54.074Z,60.37
2019-05-06T21:43:22.886Z,59.69
2019-05-06T21:45:51.393Z,59.94
2019-05-06T21:48:22.104Z,60.03
2019-05-06T21:50:52.248Z,60.53
2019-05-06T21:53:22.896Z,60.99
2019-05-06T21:55:52.547Z,60.25
2019-05-06T21:58:23.183Z,65.23
2019-05-06T22:01:02.449Z,61.53
2019-05-06T22:03:32.717Z,61.08
2019-05-06T22:06:02.314Z,59.97
2019-05-06T22:08:32.830Z,59.60
2019-05-06T22:11:02.984Z,60.07
2019-05-06T22:13:33.264Z,60.67
2019-05-06T22:16:04.667Z,61.37
2019-05-06T22:18:32.505Z,60.88
2019-05-06T22:21:03.026Z,60.29
2019-05-06T22:23:49.709Z,59.76
2019-05-06T22:26:18.387Z,59.99
2019-05-06T22:28:47.278Z,60.53
2019-05-06T22:31:15.930Z,60.17
2019-05-06T22:33:44.499Z,62.59
2019-05-06T22:36:13.339Z,61.19
2019-05-06T22:38:44.163Z,59.36
2019-05-06T22:41:12.573Z,59.49
2019-05-06T22:43:42.368Z,58.72
2019-05-06T22:46:12.360Z,60.86
2019-05-06T22:48:43.266Z,62.18
2019-05-06T22:51:12.339Z,61.01
2019-05-06T22:53:42.493Z,61.14
2019-05-06T22:56:12.959Z,60.72
2019-05-06T22:58:42.750Z,60.04
2019-05-06T23:01:32.463Z,59.69
2019-05-06T23:04:02.051Z,59.76
2019-05-06T23:06:32.754Z,60.14
2019-05-06T23:09:02.554Z,62.03
2019-05-06T23:11:32.872Z,61.44
2019-05-06T23:14:02.749Z,60.28
2019-05-06T23:16:32.870Z,60.05
2019-05-06T23:19:02.179Z,60.00
2019-05-06T23:21:33.490Z,58.95
2019-05-06T23:24:02.110Z,59.85
2019-05-06T23:26:30.792Z,59.99
2019-05-06T23:28:59.377Z,60.15
2019-05-06T23:34:09.033Z,60.41
2019-05-06T23:36:57.439Z,60.30
2019-05-06T23:40:04.286Z,59.45
2019-05-06T23:43:09.889Z,59.45
2019-05-06T23:46:14.984Z,64.23
2019-05-06T23:49:22.202Z,62.60
2019-05-06T23:52:26.529Z,61.27
2019-05-06T23:55:32.199Z,63.07
2019-05-06T23:57:59.492Z,63.07
